Time;durP1;ratioP1;P1;durP2;ratioP2;P2;SDS_P1;SDS_P2;PMS_P1;PMS_P2;Temp;Humidity;BMP_temperature;BMP_pressure;BME280_temperature;BME280_humidity;BME280_pressure;Samples;Min_cycle;Max_cycle;Signal;HPM_P1;HPM_P2
2022/02/06 00:01:18;;;;;;;4.50;4.10;;;3.80;99.90;;;;;;5061400;28;20192;-60
2022/02/06 00:03:44;;;;;;;5.30;3.53;;;3.90;99.90;;;;;;5063910;28;20204;-60
2022/02/06 00:06:10;;;;;;;4.67;3.27;;;3.70;99.90;;;;;;5064003;28;20178;-60
2022/02/06 00:08:38;;;;;;;8.00;3.13;;;3.90;99.90;;;;;;5065884;28;20194;-60
2022/02/06 00:11:04;;;;;;;4.30;3.45;;;3.80;99.90;;;;;;5057242;28;20186;-60
2022/02/06 00:13:29;;;;;;;6.33;3.50;;;3.20;99.90;;;;;;5069304;28;20736;-60
2022/02/06 00:15:55;;;;;;;3.63;2.40;;;3.50;99.90;;;;;;5067959;28;20279;-60
2022/02/06 00:18:20;;;;;;;4.00;3.10;;;3.60;99.90;;;;;;5061342;28;20181;-60
2022/02/06 00:20:53;;;;;;;4.57;3.00;;;3.70;99.90;;;;;;5072274;28;20185;-60
2022/02/06 00:23:22;;;;;;;2.78;2.53;;;3.90;99.90;;;;;;5068364;28;20185;-59
2022/02/06 00:26:00;;;;;;;4.18;2.90;;;3.60;99.90;;;;;;5072294;28;20601;-60
2022/02/06 00:31:09;;;;;;;5.15;2.80;;;3.70;99.90;;;;;;5071741;28;20603;-60
2022/02/06 00:33:43;;;;;;;4.13;2.67;;;3.80;99.90;;;;;;5063916;28;20211;-60
2022/02/06 00:39:05;;;;;;;7.00;3.22;;;3.60;99.90;;;;;;5061643;28;20191;-60
2022/02/06 00:41:33;;;;;;;4.03;3.45;;;3.60;99.90;;;;;;5056409;28;21957;-61
2022/02/06 00:44:02;;;;;;;4.70;2.90;;;3.60;99.90;;;;;;5067625;28;20209;-58
2022/02/06 00:46:29;;;;;;;5.05;2.60;;;3.60;99.90;;;;;;5062398;28;20193;-59
2022/02/06 00:48:58;;;;;;;4.05;2.25;;;3.60;99.90;;;;;;5066247;28;20264;-58
2022/02/06 00:53:50;;;;;;;2.60;2.40;;;3.70;99.90;;;;;;5068281;28;20197;-58
2022/02/06 00:56:16;;;;;;;3.93;2.30;;;3.90;99.90;;;;;;5063414;28;20471;-58
2022/02/06 00:58:42;;;;;;;4.23;2.47;;;3.80;99.90;;;;;;5061891;28;20224;-58
2022/02/06 01:01:07;;;;;;;3.03;2.13;;;4.10;99.90;;;;;;5070604;28;20692;-59
2022/02/06 01:03:33;;;;;;;3.17;1.90;;;4.10;99.90;;;;;;5063657;28;20795;-58
2022/02/06 01:05:59;;;;;;;2.47;1.80;;;3.60;99.90;;;;;;5069524;28;20197;-58
2022/02/06 01:08:24;;;;;;;4.03;1.90;;;3.90;99.90;;;;;;5062877;28;20451;-58
2022/02/06 01:10:51;;;;;;;3.93;1.40;;;4.60;99.90;;;;;;5067910;28;20727;-59
2022/02/06 01:13:32;;;;;;;4.82;1.77;;;4.40;99.90;;;;;;5059630;28;20189;-59
2022/02/06 01:16:03;;;;;;;3.40;2.05;;;3.90;99.90;;;;;;5070371;28;20666;-59
2022/02/06 01:18:40;;;;;;;2.53;1.75;;;4.60;99.90;;;;;;5063600;28;20177;-59
2022/02/06 01:21:15;;;;;;;5.72;1.65;;;4.10;99.90;;;;;;5068531;28;20178;-58
2022/02/06 01:24:02;;;;;;;7.22;2.15;;;4.70;99.90;;;;;;5069556;28;20696;-59
2022/02/06 01:29:10;;;;;;;6.25;3.10;;;4.80;99.90;;;;;;5062847;28;20606;-59
2022/02/06 01:34:17;;;;;;;5.40;2.20;;;4.70;99.90;;;;;;5067070;28;20205;-59
2022/02/06 01:36:48;;;;;;;3.30;1.85;;;4.70;99.90;;;;;;5064134;28;20276;-59
2022/02/06 01:39:35;;;;;;;3.00;2.00;;;4.30;99.90;;;;;;5061331;28;20181;-59
2022/02/06 01:42:04;;;;;;;2.00;1.83;;;4.70;99.90;;;;;;5057204;28;20184;-59
2022/02/06 01:45:08;;;;;;;3.47;2.53;;;4.80;99.90;;;;;;5066392;28;20201;-59
2022/02/06 02:03:13;;;;;;;2.75;1.63;;;5.10;99.90;;;;;;5056836;28;20209;-58
2022/02/06 02:08:58;;;;;;;1.77;1.48;;;5.00;99.90;;;;;;5063147;28;20189;-59
2022/02/06 02:17:00;;;;;;;2.60;1.90;;;5.10;99.90;;;;;;5065144;28;20900;-58
2022/02/06 02:27:44;;;;;;;3.08;1.38;;;5.20;99.90;;;;;;5053796;28;20251;-58
2022/02/06 02:46:24;;;;;;;4.70;2.05;;;5.00;99.90;;;;;;5066769;28;20182;-59
2022/02/06 02:48:50;;;;;;;2.85;1.55;;;4.80;99.90;;;;;;5057549;28;20273;-58
2022/02/06 02:51:18;;;;;;;2.17;1.25;;;4.90;99.90;;;;;;5067727;28;20186;-58
2022/02/06 02:53:51;;;;;;;1.77;1.50;;;4.50;99.90;;;;;;5059022;28;20214;-60
2022/02/06 02:56:39;;;;;;;3.30;1.60;;;4.90;99.90;;;;;;5061599;28;20233;-59
2022/02/06 03:00:20;;;;;;;2.72;1.50;;;5.10;99.90;;;;;;5056338;28;20205;-58
2022/02/06 03:02:02;;;;;;;3.75;1.35;;;4.70;99.90;;;;;;5053107;28;20191;-59
2022/02/06 03:04:27;;;;;;;3.35;1.58;;;5.20;99.90;;;;;;5057208;28;20208;-58
2022/02/06 03:06:53;;;;;;;2.20;1.10;;;4.90;99.90;;;;;;5068533;28;20546;-59
2022/02/06 03:09:21;;;;;;;2.83;1.60;;;5.10;99.90;;;;;;5065682;28;20781;-59
2022/02/06 03:11:46;;;;;;;2.17;1.45;;;5.10;99.90;;;;;;5066632;28;20190;-60
2022/02/06 03:14:20;;;;;;;5.43;1.73;;;4.40;99.90;;;;;;5055515;28;20222;-60
2022/02/06 03:17:02;;;;;;;3.92;1.35;;;5.00;99.90;;;;;;5062458;28;23324;-59
2022/02/06 03:19:29;;;;;;;1.88;1.30;;;5.00;99.90;;;;;;5060028;28;20174;-59
2022/02/06 03:21:54;;;;;;;1.50;1.30;;;4.40;99.90;;;;;;5063468;28;20184;-59
2022/02/06 03:24:23;;;;;;;1.47;1.33;;;5.20;99.90;;;;;;5065220;28;20299;-58
2022/02/06 03:26:53;;;;;;;2.53;1.40;;;5.20;99.90;;;;;;5062800;28;20661;-59
2022/02/06 03:29:21;;;;;;;1.40;1.30;;;4.70;99.90;;;;;;5071713;28;20196;-58
2022/02/06 03:31:47;;;;;;;3.30;1.23;;;5.20;99.90;;;;;;5061346;28;20250;-59
2022/02/06 03:34:14;;;;;;;5.03;1.60;;;4.70;99.90;;;;;;5053583;28;20206;-59
2022/02/06 03:36:39;;;;;;;3.10;1.50;;;5.40;99.90;;;;;;5058888;28;20207;-59
2022/02/06 03:39:06;;;;;;;2.90;1.37;;;5.30;99.90;;;;;;5067110;28;20190;-59
2022/02/06 03:41:47;;;;;;;2.17;1.58;;;5.50;99.90;;;;;;5061824;28;20189;-59
2022/02/06 03:44:50;;;;;;;8.70;1.50;;;5.60;99.70;;;;;;5065942;28;20766;-59
2022/02/06 03:47:19;;;;;;;3.65;1.30;;;5.20;99.60;;;;;;5057383;28;20572;-59
2022/02/06 03:52:11;;;;;;;3.85;0.98;;;5.40;99.90;;;;;;5058056;28;20226;-58
2022/02/06 03:54:37;;;;;;;2.00;1.30;;;5.80;99.90;;;;;;5067201;28;20620;-59
2022/02/06 03:57:03;;;;;;;1.33;1.23;;;5.30;99.70;;;;;;5065479;28;20244;-59
2022/02/06 03:59:30;;;;;;;3.75;1.35;;;5.70;99.90;;;;;;5065458;28;20549;-59
2022/02/06 04:01:56;;;;;;;1.80;1.17;;;5.60;99.80;;;;;;5057061;28;20309;-59
2022/02/06 04:04:21;;;;;;;2.30;1.13;;;5.60;99.90;;;;;;5066913;28;20280;-59
2022/02/06 04:06:47;;;;;;;2.53;1.27;;;5.10;99.90;;;;;;5068006;28;20195;-60
2022/02/06 04:09:18;;;;;;;2.13;1.30;;;5.00;99.90;;;;;;5064218;28;20194;-59
2022/02/06 04:11:48;;;;;;;6.05;1.42;;;5.40;99.80;;;;;;5065935;28;20198;-59
2022/02/06 04:14:31;;;;;;;1.38;1.23;;;5.80;99.70;;;;;;5067931;28;20223;-59
2022/02/06 04:17:07;;;;;;;3.15;1.15;;;5.50;99.40;;;;;;5059592;28;20227;-59
2022/02/06 04:19:32;;;;;;;3.08;1.50;;;5.70;99.30;;;;;;5068441;28;20217;-59
2022/02/06 04:21:58;;;;;;;2.47;1.37;;;5.20;99.30;;;;;;5058436;28;20905;-59
2022/02/06 04:24:25;;;;;;;3.33;1.50;;;5.60;99.20;;;;;;5069514;28;20268;-58
2022/02/06 04:26:53;;;;;;;2.78;1.50;;;5.60;99.20;;;;;;5068632;28;20239;-59
2022/02/06 04:29:19;;;;;;;6.00;1.40;;;5.70;99.20;;;;;;5067310;28;20210;-59
2022/02/06 04:31:47;;;;;;;3.00;1.25;;;5.10;98.70;;;;;;5065086;28;20525;-59
2022/02/06 04:34:20;;;;;;;2.92;1.30;;;5.50;99.00;;;;;;5062153;28;20306;-62
2022/02/06 04:45:29;;;;;;;3.20;1.30;;;5.20;98.50;;;;;;5058649;28;20198;-59
2022/02/06 05:17:41;;;;;;;1.98;1.10;;;5.40;98.50;;;;;;5057916;28;20223;-59
2022/02/06 05:30:19;;;;;;;2.90;1.40;;;6.00;98.90;;;;;;5067273;28;20189;-59
2022/02/06 05:32:59;;;;;;;2.67;1.55;;;6.10;99.00;;;;;;5061033;28;20274;-59
2022/02/06 05:35:26;;;;;;;2.80;1.45;;;5.60;98.60;;;;;;5059103;28;20218;-59
2022/02/06 05:37:52;;;;;;;4.65;1.60;;;6.30;98.80;;;;;;5067059;28;20212;-59
2022/02/06 05:40:18;;;;;;;5.30;1.90;;;6.30;99.10;;;;;;5061630;28;20722;-59
2022/02/06 05:42:43;;;;;;;2.80;1.33;;;6.10;99.00;;;;;;5058602;28;20189;-61
2022/02/06 05:45:10;;;;;;;2.20;1.63;;;6.10;99.00;;;;;;5065663;28;20193;-59
2022/02/06 05:47:36;;;;;;;3.72;1.77;;;6.20;98.90;;;;;;5058024;28;20199;-59
2022/02/06 05:50:03;;;;;;;3.17;2.47;;;6.00;98.90;;;;;;5067719;28;20191;-59
2022/02/06 05:52:29;;;;;;;4.60;1.85;;;6.20;98.90;;;;;;5063397;28;20187;-58
2022/02/06 05:54:54;;;;;;;4.57;1.63;;;6.20;98.80;;;;;;5067153;28;21087;-59
2022/02/06 05:57:22;;;;;;;2.97;1.60;;;6.10;98.60;;;;;;5062509;28;20488;-59
2022/02/06 05:59:47;;;;;;;2.17;1.30;;;6.30;98.70;;;;;;5065695;28;20603;-60
2022/02/06 06:02:13;;;;;;;1.57;1.30;;;6.40;98.90;;;;;;5064984;28;20209;-60
2022/02/06 06:04:39;;;;;;;6.43;1.63;;;6.20;99.10;;;;;;5062062;28;20284;-60
2022/02/06 06:07:04;;;;;;;1.60;1.47;;;6.40;99.10;;;;;;5069563;28;20190;-60
2022/02/06 06:09:30;;;;;;;3.53;1.70;;;5.80;98.70;;;;;;5068937;28;20577;-60
2022/02/06 06:11:56;;;;;;;4.53;1.60;;;5.80;98.70;;;;;;5067645;28;20185;-60
2022/02/06 06:14:28;;;;;;;2.60;1.40;;;6.20;98.90;;;;;;5059472;28;20503;-60
2022/02/06 06:16:53;;;;;;;3.92;1.55;;;5.90;98.80;;;;;;5058787;28;21021;-60
2022/02/06 06:19:19;;;;;;;2.40;1.13;;;6.00;99.20;;;;;;5057150;28;20177;-61
2022/02/06 06:21:46;;;;;;;1.47;1.30;;;6.10;98.80;;;;;;5062655;28;20653;-62
2022/02/06 06:24:16;;;;;;;2.10;1.10;;;5.60;98.70;;;;;;5066800;28;20231;-61
2022/02/06 06:26:42;;;;;;;5.60;1.80;;;6.10;98.70;;;;;;5053663;28;20203;-61
2022/02/06 06:29:08;;;;;;;2.50;1.80;;;6.70;99.20;;;;;;5061983;28;20180;-62
2022/02/06 06:31:34;;;;;;;7.20;1.90;;;6.10;99.10;;;;;;5057397;28;20272;-60
2022/02/06 06:33:59;;;;;;;2.50;1.53;;;6.10;98.90;;;;;;5052796;28;20206;-63
2022/02/06 06:36:26;;;;;;;1.73;1.27;;;6.50;99.20;;;;;;5065470;28;20578;-61
2022/02/06 06:38:54;;;;;;;6.35;2.35;;;6.20;98.90;;;;;;5064192;28;20541;-63
2022/02/06 06:41:19;;;;;;;1.40;1.25;;;6.10;99.10;;;;;;5062266;28;20175;-63
2022/02/06 06:43:45;;;;;;;1.60;1.43;;;6.40;99.10;;;;;;5064210;28;20671;-62
2022/02/06 06:46:11;;;;;;;5.80;1.20;;;6.10;99.10;;;;;;5058765;28;20475;-62
2022/02/06 06:48:37;;;;;;;3.40;1.42;;;6.10;99.10;;;;;;5057839;28;20264;-65
2022/02/06 06:51:03;;;;;;;4.07;1.50;;;6.20;99.20;;;;;;5066112;28;20649;-65
2022/02/06 06:53:29;;;;;;;5.90;2.17;;;6.10;99.10;;;;;;5067119;28;20270;-59
2022/02/06 06:56:00;;;;;;;3.10;1.52;;;6.00;99.20;;;;;;5055624;28;20238;-61
2022/02/06 06:58:33;;;;;;;4.47;1.40;;;5.90;99.20;;;;;;5063154;28;20271;-59
2022/02/06 07:03:26;;;;;;;1.80;1.20;;;6.30;99.40;;;;;;5051387;28;20188;-57
2022/02/06 07:05:52;;;;;;;2.15;1.38;;;6.10;99.20;;;;;;5055235;28;20187;-60
2022/02/06 07:08:19;;;;;;;1.75;1.38;;;6.20;99.10;;;;;;5060194;28;20246;-58
2022/02/06 07:10:46;;;;;;;2.00;1.13;;;6.30;99.10;;;;;;5057930;28;20178;-59
2022/02/06 07:13:13;;;;;;;2.63;1.20;;;6.40;99.00;;;;;;5060839;28;20206;-58
2022/02/06 07:15:39;;;;;;;4.07;1.33;;;6.30;98.90;;;;;;5062802;28;20604;-61
2022/02/06 07:18:05;;;;;;;4.10;1.90;;;6.40;99.10;;;;;;5062503;28;20202;-61
2022/02/06 07:20:33;;;;;;;2.70;1.30;;;6.40;99.00;;;;;;5058502;28;20177;-60
2022/02/06 07:22:58;;;;;;;4.82;1.45;;;6.50;98.90;;;;;;5059262;28;20191;-61
2022/02/06 07:25:26;;;;;;;3.50;1.90;;;6.50;98.70;;;;;;5066016;28;20207;-58
2022/02/06 07:27:52;;;;;;;4.00;1.58;;;6.40;98.70;;;;;;5054472;28;20441;-60
2022/02/06 07:30:18;;;;;;;3.90;2.30;;;6.60;98.70;;;;;;5070731;28;20189;-60
2022/02/06 07:32:44;;;;;;;2.20;1.50;;;6.70;98.70;;;;;;5054069;28;20212;-58
2022/02/06 07:35:12;;;;;;;2.65;1.58;;;6.70;98.70;;;;;;5060498;28;20471;-59
2022/02/06 07:37:42;;;;;;;4.60;1.50;;;6.60;98.50;;;;;;5062689;28;20261;-59
2022/02/06 07:40:09;;;;;;;4.55;1.77;;;6.50;98.60;;;;;;5061241;28;21825;-57
2022/02/06 07:42:35;;;;;;;3.47;1.50;;;6.60;98.50;;;;;;5062175;28;20181;-58
2022/02/06 07:45:01;;;;;;;3.70;1.23;;;6.60;98.60;;;;;;5066011;28;20213;-60
2022/02/06 07:47:26;;;;;;;3.97;1.77;;;6.70;98.60;;;;;;5062362;28;20725;-58
2022/02/06 07:49:54;;;;;;;3.93;1.43;;;6.60;98.60;;;;;;5065197;28;20441;-58
2022/02/06 07:52:22;;;;;;;1.85;1.25;;;6.80;98.60;;;;;;5064777;28;20176;-59
2022/02/06 07:54:49;;;;;;;4.55;1.58;;;6.60;98.50;;;;;;5070618;28;20606;-58
2022/02/06 07:57:15;;;;;;;2.85;1.30;;;6.70;98.30;;;;;;5067871;28;20207;-59
2022/02/06 07:59:40;;;;;;;4.30;1.60;;;6.80;98.50;;;;;;5066443;28;20211;-58
2022/02/06 08:02:07;;;;;;;2.53;1.40;;;6.80;98.50;;;;;;5066262;28;20325;-59
2022/02/06 08:04:34;;;;;;;2.45;1.27;;;6.80;98.60;;;;;;5062090;28;20214;-58
2022/02/06 08:07:00;;;;;;;2.30;1.30;;;6.80;98.80;;;;;;5061569;28;20185;-59
2022/02/06 08:11:57;;;;;;;2.00;1.35;;;7.00;98.40;;;;;;5056021;28;20448;-57
2022/02/06 08:17:08;;;;;;;2.47;1.40;;;7.30;98.40;;;;;;5055941;28;20236;-58
2022/02/06 08:19:34;;;;;;;2.95;1.48;;;7.20;98.00;;;;;;5066745;28;20192;-57
2022/02/06 08:22:00;;;;;;;3.20;1.47;;;7.20;98.00;;;;;;5070132;28;20541;-58
2022/02/06 08:24:25;;;;;;;3.30;1.40;;;7.30;97.90;;;;;;5066965;28;20493;-56
2022/02/06 08:26:51;;;;;;;1.80;1.37;;;7.40;97.90;;;;;;5068682;28;20185;-58
2022/02/06 08:29:17;;;;;;;2.80;1.20;;;7.50;97.90;;;;;;5059980;28;20276;-57
2022/02/06 08:31:44;;;;;;;2.80;1.55;;;7.30;97.70;;;;;;5055594;28;20193;-57
2022/02/06 08:34:09;;;;;;;4.53;1.92;;;7.40;97.60;;;;;;5059905;28;20223;-59
2022/02/06 08:36:35;;;;;;;4.23;1.30;;;7.20;97.50;;;;;;5062651;28;20583;-60
2022/02/06 08:39:01;;;;;;;2.83;1.47;;;7.60;97.60;;;;;;5063128;28;20272;-59
2022/02/06 08:41:26;;;;;;;2.30;1.27;;;7.00;97.10;;;;;;5066187;28;20223;-58
2022/02/06 08:43:52;;;;;;;2.33;1.50;;;7.60;97.10;;;;;;5058483;28;20217;-59
2022/02/06 08:46:18;;;;;;;3.07;1.50;;;7.50;97.00;;;;;;5059889;28;20188;-58
2022/02/06 08:48:44;;;;;;;1.75;1.27;;;7.50;96.70;;;;;;5056265;28;20208;-59
2022/02/06 08:51:10;;;;;;;4.50;1.90;;;7.40;96.50;;;;;;5068668;28;20634;-58
2022/02/06 08:53:36;;;;;;;2.67;1.30;;;8.00;96.70;;;;;;5061756;28;20236;-57
2022/02/06 08:56:01;;;;;;;2.50;1.30;;;8.20;96.30;;;;;;5069582;28;20257;-58
2022/02/06 08:58:27;;;;;;;6.63;1.50;;;7.90;96.20;;;;;;5059646;28;20185;-57
2022/02/06 09:00:53;;;;;;;2.17;1.50;;;8.20;96.00;;;;;;5059436;28;20268;-61
2022/02/06 09:03:20;;;;;;;2.10;1.33;;;8.20;96.10;;;;;;5059757;28;20189;-60
2022/02/06 09:05:46;;;;;;;1.88;1.25;;;8.10;96.10;;;;;;5068942;28;20189;-59
2022/02/06 09:08:12;;;;;;;3.03;1.30;;;8.00;95.90;;;;;;5067635;28;20247;-60
2022/02/06 09:10:38;;;;;;;4.68;2.05;;;8.10;95.90;;;;;;5058475;28;20895;-61
2022/02/06 09:13:05;;;;;;;4.60;1.23;;;8.20;95.70;;;;;;5061121;28;20182;-61
2022/02/06 09:15:31;;;;;;;2.60;1.70;;;8.20;95.60;;;;;;5061369;28;20205;-60
2022/02/06 09:17:57;;;;;;;1.47;1.37;;;8.20;95.40;;;;;;5060912;28;20236;-59
2022/02/06 09:20:23;;;;;;;2.60;1.23;;;8.50;95.50;;;;;;5065216;28;20521;-60
2022/02/06 09:22:49;;;;;;;3.58;1.27;;;8.20;95.50;;;;;;5061981;28;20405;-59
2022/02/06 09:25:15;;;;;;;1.67;1.17;;;8.30;95.40;;;;;;5062851;28;20238;-58
2022/02/06 09:27:42;;;;;;;1.60;0.93;;;8.00;95.20;;;;;;5056074;28;20185;-63
2022/02/06 09:30:15;;;;;;;7.70;1.85;;;8.40;95.40;;;;;;5063576;28;20537;-62
2022/02/06 09:37:34;;;;;;;2.87;1.10;;;8.50;96.10;;;;;;5058890;28;20216;-61
2022/02/06 09:39:59;;;;;;;2.53;1.17;;;8.40;95.80;;;;;;5061145;28;20729;-61
2022/02/06 09:42:27;;;;;;;3.07;1.53;;;8.40;95.90;;;;;;5057729;28;20181;-61
2022/02/06 09:44:53;;;;;;;6.22;1.77;;;8.50;96.10;;;;;;5063222;28;20196;-62
2022/02/06 09:47:30;;;;;;;3.97;1.30;;;8.60;95.80;;;;;;5062821;28;20189;-65
2022/02/06 09:49:56;;;;;;;1.83;1.52;;;8.50;95.20;;;;;;5071123;28;20195;-63
2022/02/06 09:52:26;;;;;;;2.63;1.30;;;8.50;95.20;;;;;;5064687;28;20569;-63
2022/02/06 09:55:02;;;;;;;2.17;1.40;;;8.70;95.30;;;;;;5061863;28;20203;-64
2022/02/06 09:57:39;;;;;;;1.50;1.10;;;8.60;95.50;;;;;;5053919;28;20546;-62
2022/02/06 10:00:06;;;;;;;3.90;1.92;;;8.40;95.50;;;;;;5061365;28;20177;-67
2022/02/06 10:02:33;;;;;;;1.80;1.27;;;8.50;95.50;;;;;;5055417;28;20182;-63
2022/02/06 10:04:59;;;;;;;3.28;1.75;;;8.50;95.30;;;;;;5068407;28;20215;-59
2022/02/06 10:07:37;;;;;;;2.22;1.83;;;8.70;95.60;;;;;;5061594;28;20198;-68
2022/02/06 10:10:06;;;;;;;7.50;1.88;;;8.90;95.60;;;;;;5064891;28;20185;-68
2022/02/06 10:12:36;;;;;;;2.70;1.33;;;9.00;95.30;;;;;;5053016;28;20196;-68
2022/02/06 10:15:01;;;;;;;2.83;1.23;;;9.00;95.20;;;;;;5061250;28;20221;-65
2022/02/06 10:17:27;;;;;;;4.13;1.33;;;8.80;95.20;;;;;;5053195;28;21182;-65
2022/02/06 10:19:55;;;;;;;1.60;1.13;;;8.50;95.20;;;;;;5060814;28;20532;-65
2022/02/06 10:22:30;;;;;;;1.33;1.00;;;8.90;95.40;;;;;;5061934;28;20215;-65
2022/02/06 10:25:05;;;;;;;3.17;1.50;;;8.80;95.30;;;;;;5059574;28;20196;-65
2022/02/06 10:27:48;;;;;;;2.20;1.60;;;8.80;95.10;;;;;;5054328;28;20188;-65
2022/02/06 10:30:37;;;;;;;1.52;0.98;;;8.90;95.10;;;;;;5065030;28;20268;-65
2022/02/06 10:33:24;;;;;;;3.08;1.20;;;8.90;95.10;;;;;;5053555;28;20196;-65
2022/02/06 10:35:54;;;;;;;1.63;0.82;;;9.00;95.30;;;;;;5064387;28;20189;-66
2022/02/06 10:38:24;;;;;;;8.27;1.70;;;8.90;95.00;;;;;;5054945;28;20176;-66
2022/02/06 10:41:08;;;;;;;3.28;1.10;;;8.90;95.00;;;;;;5065711;28;20654;-65
2022/02/06 10:43:35;;;;;;;4.50;1.10;;;9.00;95.00;;;;;;5057680;28;20548;-65
2022/02/06 10:46:20;;;;;;;2.75;1.20;;;9.00;95.20;;;;;;5057522;28;20211;-65
2022/02/06 10:48:51;;;;;;;3.58;1.17;;;9.10;95.40;;;;;;5057589;28;20875;-67
2022/02/06 10:51:44;;;;;;;2.08;1.20;;;8.90;95.60;;;;;;5062192;28;20181;-65
2022/02/06 10:54:18;;;;;;;1.73;1.50;;;8.90;95.30;;;;;;5061356;28;20209;-66
2022/02/06 10:57:05;;;;;;;4.10;1.20;;;9.00;95.40;;;;;;5060323;28;20223;-65
2022/02/06 10:59:43;;;;;;;2.90;1.38;;;9.00;95.50;;;;;;5061270;28;20185;-67
2022/02/06 11:02:58;;;;;;;2.08;1.38;;;9.00;95.30;;;;;;5062530;28;20724;-67
2022/02/06 11:05:33;;;;;;;1.98;1.08;;;9.20;95.30;;;;;;5059277;28;20216;-65
2022/02/06 11:08:01;;;;;;;7.15;1.55;;;9.30;95.20;;;;;;5059358;28;20216;-68
2022/02/06 11:10:30;;;;;;;1.20;0.90;;;9.40;94.90;;;;;;5064503;28;20225;-65
2022/02/06 11:13:02;;;;;;;4.38;1.35;;;9.80;95.00;;;;;;5061325;28;20692;-65
2022/02/06 11:15:31;;;;;;;1.98;1.17;;;9.40;94.70;;;;;;5058251;28;20205;-65
2022/02/06 11:18:24;;;;;;;2.20;1.10;;;9.70;94.80;;;;;;5056030;28;20891;-65
2022/02/06 11:20:53;;;;;;;1.90;1.25;;;9.90;94.70;;;;;;5064164;28;20173;-65
2022/02/06 11:23:19;;;;;;;2.25;1.10;;;9.70;94.60;;;;;;5065760;28;20244;-65
2022/02/06 11:25:45;;;;;;;3.47;1.30;;;9.60;94.90;;;;;;5058514;28;20215;-65
2022/02/06 11:28:12;;;;;;;1.75;1.40;;;9.50;95.00;;;;;;5055621;28;20957;-65
2022/02/06 11:30:42;;;;;;;4.10;1.38;;;9.60;94.90;;;;;;5056874;28;20232;-65
2022/02/06 11:33:08;;;;;;;2.72;1.13;;;9.60;95.00;;;;;;5059810;28;20188;-65
2022/02/06 11:35:38;;;;;;;1.00;0.90;;;9.60;94.80;;;;;;5059632;28;20205;-65
2022/02/06 11:44:18;;;;;;;2.42;0.90;;;9.70;94.70;;;;;;5060561;28;20214;-68
2022/02/06 11:47:09;;;;;;;3.40;1.10;;;9.90;95.00;;;;;;5052505;28;20189;-63
2022/02/06 11:49:38;;;;;;;1.60;1.08;;;9.50;94.80;;;;;;5053604;28;20193;-63
2022/02/06 11:52:04;;;;;;;2.50;1.00;;;9.50;95.00;;;;;;5063259;28;20177;-61
2022/02/06 11:54:47;;;;;;;3.53;1.43;;;9.70;95.00;;;;;;5055398;28;20210;-61
2022/02/06 11:57:16;;;;;;;1.48;1.10;;;10.00;94.80;;;;;;5060838;28;20467;-60
2022/02/06 12:00:05;;;;;;;2.00;1.10;;;10.00;94.70;;;;;;5065712;28;20227;-62
2022/02/06 12:02:36;;;;;;;1.45;1.00;;;10.10;94.80;;;;;;5052921;28;20236;-63
2022/02/06 12:05:28;;;;;;;2.13;1.00;;;10.10;94.70;;;;;;5056730;28;20228;-66
2022/02/06 12:08:00;;;;;;;1.35;1.00;;;9.90;95.30;;;;;;5058597;28;20193;-60
2022/02/06 12:10:34;;;;;;;1.85;1.13;;;9.80;95.60;;;;;;5061271;28;20562;-61
2022/02/06 12:15:58;;;;;;;2.50;1.00;;;9.70;95.70;;;;;;5060426;28;20186;-62
2022/02/06 12:18:29;;;;;;;1.70;0.95;;;9.60;96.20;;;;;;5054266;28;20225;-60
2022/02/06 12:21:12;;;;;;;1.70;1.27;;;9.30;96.10;;;;;;5062241;28;20182;-61
2022/02/06 12:23:44;;;;;;;2.03;1.13;;;9.50;96.40;;;;;;5057140;28;20287;-59
2022/02/06 12:26:29;;;;;;;1.30;1.10;;;9.20;96.10;;;;;;5057453;28;20664;-60
2022/02/06 12:29:02;;;;;;;1.42;1.00;;;9.50;96.20;;;;;;5057443;28;20189;-58
2022/02/06 12:31:30;;;;;;;2.40;1.63;;;9.50;96.20;;;;;;5068305;28;20191;-59
2022/02/06 12:39:23;;;;;;;1.65;1.00;;;9.50;96.40;;;;;;5071205;28;20237;-62
2022/02/06 12:41:49;;;;;;;1.27;1.08;;;9.60;96.10;;;;;;5064743;28;20181;-59
2022/02/06 12:44:17;;;;;;;1.65;0.90;;;9.40;95.80;;;;;;5060852;28;20673;-63
2022/02/06 12:46:50;;;;;;;2.30;0.98;;;9.50;96.00;;;;;;5066920;28;20189;-61
2022/02/06 12:49:21;;;;;;;1.52;1.10;;;9.30;96.00;;;;;;5061456;28;20788;-62
2022/02/06 12:51:53;;;;;;;2.97;0.85;;;9.50;95.80;;;;;;5063465;28;20311;-61
2022/02/06 12:54:19;;;;;;;3.63;3.25;;;9.70;95.70;;;;;;5065650;28;20205;-62
2022/02/06 12:56:44;;;;;;;1.70;1.10;;;9.90;95.50;;;;;;5062407;28;20600;-63
2022/02/06 12:59:16;;;;;;;2.23;1.00;;;9.80;94.90;;;;;;5070755;28;20211;-59
2022/02/06 13:01:44;;;;;;;1.75;1.00;;;9.80;95.70;;;;;;5057532;28;20182;-62
2022/02/06 13:04:13;;;;;;;1.00;0.90;;;9.70;95.40;;;;;;5060999;28;20207;-62
2022/02/06 13:06:43;;;;;;;1.20;0.98;;;9.60;95.90;;;;;;5065851;28;20190;-61
2022/02/06 13:09:25;;;;;;;1.88;0.85;;;9.40;96.40;;;;;;5061127;28;20188;-63
2022/02/06 13:18:02;;;;;;;3.75;1.05;;;9.30;97.20;;;;;;5017037;28;20759;-64
2022/02/06 13:20:38;;;;;;;0.90;0.77;;;9.30;97.40;;;;;;5050969;28;20238;-60
2022/02/06 13:23:42;;;;;;;1.45;0.70;;;9.30;98.10;;;;;;5063638;28;20264;-61
2022/02/06 13:26:19;;;;;;;0.90;0.80;;;9.20;98.20;;;;;;5064420;28;20182;-59
2022/02/06 13:28:54;;;;;;;0.77;0.65;;;9.30;97.30;;;;;;5063302;28;20542;-60
2022/02/06 13:31:41;;;;;;;1.17;0.70;;;9.40;97.80;;;;;;5064013;28;20180;-59
2022/02/06 13:36:41;;;;;;;0.80;0.80;;;9.40;98.20;;;;;;5065987;28;20579;-60
2022/02/06 13:39:14;;;;;;;1.10;0.88;;;9.20;98.40;;;;;;5061575;28;20189;-61
2022/02/06 13:41:40;;;;;;;1.08;0.98;;;9.10;98.70;;;;;;5058853;28;20604;-60
2022/02/06 13:44:19;;;;;;;0.90;0.80;;;9.10;99.10;;;;;;5066142;28;20205;-62
2022/02/06 13:46:45;;;;;;;3.65;1.00;;;9.20;99.40;;;;;;5061149;28;20806;-62
2022/02/06 13:49:11;;;;;;;3.45;0.70;;;9.10;99.50;;;;;;5055102;28;20189;-62
2022/02/06 13:51:49;;;;;;;1.40;0.82;;;8.90;99.80;;;;;;5059198;28;20189;-58
2022/02/06 13:54:15;;;;;;;0.90;0.77;;;8.70;99.90;;;;;;5063548;28;20885;-58
2022/02/06 13:56:41;;;;;;;1.00;0.85;;;8.70;99.90;;;;;;5068821;28;20216;-60
2022/02/06 13:59:12;;;;;;;0.70;0.63;;;8.60;99.90;;;;;;5051446;28;20178;-60
2022/02/06 14:01:53;;;;;;;1.17;0.75;;;8.50;99.90;;;;;;5060774;28;20417;-57
2022/02/06 14:04:29;;;;;;;0.70;0.68;;;8.80;99.90;;;;;;5065675;28;20208;-60
2022/02/06 14:07:08;;;;;;;0.80;0.70;;;8.60;99.90;;;;;;5058881;28;20697;-62
2022/02/06 14:12:16;;;;;;;1.55;1.10;;;8.50;99.90;;;;;;5062073;28;20184;-59
2022/02/06 14:15:00;;;;;;;1.08;0.90;;;8.20;99.90;;;;;;5062252;28;20705;-62
2022/02/06 14:17:27;;;;;;;1.10;0.93;;;8.40;99.90;;;;;;5059664;28;20224;-62
2022/02/06 14:19:55;;;;;;;0.93;0.80;;;8.20;99.90;;;;;;5061987;28;20192;-63
2022/02/06 14:22:28;;;;;;;1.20;1.10;;;7.80;99.90;;;;;;5068002;28;20196;-62
2022/02/06 14:24:56;;;;;;;0.90;0.70;;;8.10;99.90;;;;;;5070587;28;20598;-64
2022/02/06 14:27:30;;;;;;;1.42;0.85;;;7.80;99.90;;;;;;5064460;28;20254;-65
2022/02/06 14:29:59;;;;;;;1.10;1.00;;;7.80;99.90;;;;;;5070154;28;20588;-64
2022/02/06 14:32:24;;;;;;;1.00;0.90;;;7.90;99.90;;;;;;5058466;28;20201;-66
2022/02/06 14:35:09;;;;;;;1.13;0.80;;;7.60;99.90;;;;;;5065862;28;20205;-63
2022/02/06 14:37:51;;;;;;;1.50;0.70;;;7.80;99.90;;;;;;5058279;28;20689;-59
2022/02/06 14:40:32;;;;;;;3.25;0.70;;;7.80;99.90;;;;;;5066296;28;20633;-59
2022/02/06 14:43:04;;;;;;;0.70;0.70;;;7.50;99.90;;;;;;5063359;28;20173;-61
2022/02/06 14:45:31;;;;;;;1.52;0.70;;;7.60;99.90;;;;;;5057592;28;20201;-70
2022/02/06 14:47:56;;;;;;;0.70;0.70;;;7.50;99.90;;;;;;5051522;28;20184;-59
2022/02/06 14:50:22;;;;;;;0.70;0.70;;;7.30;99.90;;;;;;5062463;28;20203;-58
2022/02/06 14:52:48;;;;;;;0.90;0.80;;;7.50;99.90;;;;;;5063853;28;20422;-59
2022/02/06 14:55:14;;;;;;;2.33;0.70;;;7.00;99.90;;;;;;5063700;28;20228;-58
2022/02/06 14:57:40;;;;;;;0.98;0.80;;;7.40;99.90;;;;;;5061787;28;20235;-61
2022/02/06 15:00:09;;;;;;;0.90;0.70;;;7.40;99.90;;;;;;5059018;28;20178;-58
2022/02/06 15:02:35;;;;;;;1.20;0.50;;;7.20;99.90;;;;;;5049842;28;20189;-58
2022/02/06 15:05:02;;;;;;;1.05;0.60;;;7.50;99.90;;;;;;5068015;28;20307;-58
2022/02/06 15:07:29;;;;;;;1.58;0.80;;;7.20;99.90;;;;;;5063268;28;20558;-59
2022/02/06 15:09:55;;;;;;;1.33;0.80;;;7.20;99.90;;;;;;5063339;28;20687;-59
2022/02/06 15:12:21;;;;;;;1.15;0.70;;;7.70;99.90;;;;;;5063849;28;20199;-59
2022/02/06 15:14:46;;;;;;;0.60;0.60;;;7.30;99.90;;;;;;5065371;28;20212;-60
2022/02/06 15:17:18;;;;;;;0.87;0.70;;;7.10;99.90;;;;;;5051940;28;20212;-60
2022/02/06 15:19:44;;;;;;;1.30;0.88;;;7.30;99.90;;;;;;5046616;28;20447;-60
2022/02/06 15:22:10;;;;;;;0.73;0.63;;;6.90;99.90;;;;;;5065657;28;20213;-59
2022/02/06 15:24:36;;;;;;;0.80;0.63;;;6.90;99.90;;;;;;5068063;28;20204;-60
2022/02/06 15:27:01;;;;;;;0.77;0.60;;;6.90;99.90;;;;;;5060264;28;20193;-59
2022/02/06 15:29:29;;;;;;;0.70;0.70;;;7.20;99.90;;;;;;5065348;28;20183;-58
2022/02/06 15:31:55;;;;;;;0.80;0.80;;;7.00;99.90;;;;;;5062743;28;20227;-60
2022/02/06 15:34:21;;;;;;;0.75;0.60;;;6.80;99.90;;;;;;5049070;28;20263;-60
2022/02/06 15:36:51;;;;;;;0.80;0.70;;;7.20;99.90;;;;;;5062775;28;20224;-60
2022/02/06 15:39:31;;;;;;;3.83;2.40;;;6.60;99.90;;;;;;5067476;28;20253;-60
2022/02/06 15:41:56;;;;;;;0.70;0.55;;;6.80;99.90;;;;;;5062729;28;20202;-60
2022/02/06 15:44:23;;;;;;;0.80;0.80;;;6.70;99.90;;;;;;5059597;28;20205;-60